Martin Lake, Minnesota
Current Conditions -  °F | °C
As of 7:15 PM on Monday 26 Jan 2015 (Local Time) from KCBG Reporting Station
Overcast Overcast  
Wind Chill: 34°   Ceiling: 3400
Heat Index: 39°   Visibility: 10mi
Dew Point: 28°   Wind: 7mph
Humidity: 65%   Direction: 320°NW
Pressure: 29.85"   Gusts: NA
Location:  45.406°N, 93.0079°W
Report Text: KCBG 270115Z AUTO 32006KT 10SM SCT029 OVC034 04/M02 A2985 RMK AO2
Loading
Personal Weather Stations






























Interactive Weather Map New forecast layout! Learn more

10-Day Weather Forecast

Advertisements
Track Severe Weather on mobile